createdAt,value
2022-07-30T09:41:29.134Z,635.63
2022-07-30T09:42:08.824Z,596.25
2022-07-30T09:43:08.791Z,551.25
2022-07-30T09:44:08.790Z,489.38
2022-07-30T10:28:39.375Z,534.38
2022-07-30T10:29:37.133Z,495.00
2022-07-30T10:40:41.626Z,663.75
2022-07-30T10:41:43.322Z,624.38
2022-07-30T10:42:41.587Z,607.50
2022-07-30T10:43:41.574Z,562.50
2022-07-30T11:12:06.025Z,455.63
2022-07-30T11:13:05.048Z,461.25
2022-07-30T11:14:05.031Z,472.50
2022-07-30T11:15:07.291Z,483.75
2022-07-30T11:16:04.989Z,523.13
2022-07-30T11:17:04.978Z,596.25
2022-07-30T11:18:04.988Z,607.50
2022-07-30T11:19:56.877Z,568.13
2022-07-30T11:20:04.943Z,540.00
2022-07-30T11:21:05.793Z,528.75
2022-07-30T11:22:05.176Z,528.75
2022-07-30T11:23:04.922Z,511.88
2022-07-30T11:24:04.892Z,495.00
2022-07-30T11:25:13.083Z,461.25
2022-07-30T11:26:04.874Z,427.50
2022-07-30T11:28:12.012Z,427.50
2022-07-30T11:29:11.974Z,427.50
2022-07-30T11:30:12.007Z,427.50
2022-07-30T11:31:11.963Z,427.50
2022-07-30T11:32:12.311Z,427.50
2022-07-30T11:33:11.946Z,427.50
2022-07-30T11:34:11.914Z,427.50
2022-07-30T11:35:11.915Z,427.50
2022-07-30T11:36:12.066Z,421.88
2022-07-30T11:37:22.154Z,416.25
2022-07-30T11:38:11.887Z,405.00
2022-07-30T11:39:11.862Z,410.63
2022-07-30T11:40:11.850Z,416.25
2022-07-30T11:41:11.829Z,433.13
2022-07-30T11:42:11.828Z,461.25
2022-07-30T11:43:11.821Z,472.50
2022-07-30T11:44:11.795Z,478.13
2022-07-30T11:45:11.784Z,478.13
2022-07-30T11:46:12.326Z,444.38
2022-07-30T11:47:11.769Z,427.50
2022-07-30T11:48:11.772Z,427.50
2022-07-30T11:49:11.790Z,444.38
2022-07-30T11:50:11.722Z,433.13
2022-07-30T11:51:11.707Z,427.50
2022-07-30T11:52:11.695Z,438.75
2022-07-30T11:53:11.708Z,444.38
2022-07-30T11:54:11.697Z,438.75
2022-07-30T11:55:11.660Z,427.50
2022-07-30T11:56:11.656Z,427.50
2022-07-30T11:57:11.650Z,416.25
2022-07-30T11:58:11.652Z,421.88
2022-07-30T11:59:11.623Z,421.88
2022-07-30T12:00:11.610Z,421.88
2022-07-30T12:01:11.594Z,421.88
2022-07-30T12:02:11.584Z,421.88
2022-07-30T12:03:11.752Z,427.50
2022-07-30T12:04:11.562Z,433.13
2022-07-30T12:05:11.554Z,427.50
2022-07-30T12:06:11.535Z,427.50
2022-07-30T12:07:11.533Z,421.88
2022-07-30T12:08:33.467Z,421.88
2022-07-30T12:09:11.506Z,421.88
2022-07-30T12:10:11.492Z,433.13
2022-07-30T12:11:11.471Z,444.38
2022-07-30T12:12:11.469Z,455.63
2022-07-30T12:13:11.457Z,472.50
2022-07-30T12:14:11.456Z,483.75
2022-07-30T12:15:11.424Z,500.63
2022-07-30T12:16:11.428Z,511.88
2022-07-30T12:17:15.035Z,511.88
2022-07-30T12:18:25.898Z,511.88
2022-07-30T12:19:11.395Z,495.00
2022-07-30T12:20:11.367Z,506.25
2022-07-30T12:21:11.367Z,517.50
2022-07-30T12:22:11.374Z,528.75
2022-07-30T12:23:11.349Z,534.38
2022-07-30T12:24:11.342Z,540.00
2022-07-30T12:25:11.320Z,528.75
2022-07-30T12:26:11.298Z,545.63
2022-07-30T12:27:11.347Z,551.25
2022-07-30T12:28:11.279Z,517.50
2022-07-30T12:29:11.288Z,506.25
2022-07-30T12:30:11.261Z,511.88
2022-07-30T12:31:11.241Z,517.50
2022-07-30T12:32:11.239Z,495.00
2022-07-30T12:33:11.231Z,489.38
2022-07-30T12:34:11.220Z,495.00
2022-07-30T12:35:11.197Z,500.63
2022-07-30T12:36:11.198Z,500.63
2022-07-30T12:37:11.182Z,523.13
2022-07-30T12:38:11.160Z,540.00
2022-07-30T12:39:11.174Z,540.00
2022-07-30T12:40:14.753Z,540.00
2022-07-30T12:41:11.124Z,540.00
2022-07-30T12:42:11.112Z,528.75
2022-07-30T12:43:13.500Z,556.88
2022-07-30T12:44:11.106Z,568.13
2022-07-30T12:45:11.091Z,568.13
2022-07-30T12:46:14.850Z,579.38
2022-07-30T12:47:11.071Z,590.63
2022-07-30T12:48:11.046Z,601.88
2022-07-30T12:49:21.957Z,618.75
2022-07-30T12:50:11.085Z,618.75
2022-07-30T12:51:11.011Z,618.75
2022-07-30T12:52:18.488Z,630.00
2022-07-30T12:53:11.002Z,669.38
2022-07-30T12:54:11.001Z,686.25
2022-07-30T12:55:10.978Z,675.00
2022-07-30T12:56:10.955Z,697.50
2022-07-30T12:57:10.946Z,691.88
2022-07-30T12:58:10.941Z,686.25
2022-07-30T12:59:10.934Z,691.88
2022-07-30T13:00:10.909Z,686.25
2022-07-30T13:01:10.938Z,663.75
2022-07-30T13:02:10.890Z,675.00
2022-07-30T13:03:10.892Z,663.75
2022-07-30T13:04:10.879Z,669.38
2022-07-30T13:05:12.127Z,669.38
2022-07-30T13:06:10.849Z,669.38
2022-07-30T13:07:10.850Z,686.25
2022-07-30T13:08:10.822Z,675.00
2022-07-30T13:09:10.841Z,675.00
2022-07-30T13:10:10.805Z,714.38
2022-07-30T13:11:10.794Z,720.00
2022-07-30T13:12:10.794Z,787.50
2022-07-30T13:13:10.794Z,871.88
2022-07-30T13:14:10.785Z,1237.50
2022-07-30T13:15:10.769Z,2126.25
2022-07-30T13:16:10.770Z,2390.63
2022-07-30T13:17:10.734Z,2660.63
2022-07-30T13:18:10.733Z,2975.63
2022-07-30T13:19:10.728Z,2863.13
2022-07-30T13:20:10.707Z,2160.00
2022-07-30T13:21:10.712Z,2289.38
2022-07-30T13:22:10.705Z,1805.63
2022-07-30T13:23:10.678Z,2503.13
2022-07-30T13:24:10.688Z,2919.38
2022-07-30T13:25:10.677Z,3020.63
2022-07-30T13:26:10.666Z,3037.50
2022-07-30T13:27:10.637Z,3144.38
2022-07-30T13:28:10.629Z,3020.63
2022-07-30T13:29:10.648Z,3144.38
2022-07-30T13:30:10.617Z,3251.25
2022-07-30T13:31:10.598Z,3093.75
2022-07-30T13:32:10.600Z,3583.13
2022-07-30T13:33:10.595Z,3436.88
2022-07-30T13:34:10.595Z,3189.38
2022-07-30T13:35:10.560Z,3588.75
2022-07-30T13:36:10.578Z,3746.25
2022-07-30T13:37:10.569Z,3459.38
2022-07-30T13:38:10.537Z,3622.50
2022-07-30T13:39:10.538Z,3791.25
2022-07-30T13:40:10.519Z,3791.25
2022-07-30T13:41:10.514Z,3751.88
2022-07-30T13:42:10.511Z,3667.50
2022-07-30T13:43:10.500Z,3223.13
2022-07-30T13:44:10.532Z,2632.50
2022-07-30T13:45:10.472Z,1985.63
2022-07-30T13:46:10.483Z,2295.00
2022-07-30T13:47:10.470Z,2041.88
2022-07-30T13:48:10.447Z,2390.63
2022-07-30T13:49:10.564Z,2148.75
2022-07-30T13:50:10.445Z,1980.00
2022-07-30T13:51:10.434Z,1985.63
2022-07-30T13:52:10.423Z,2047.50
2022-07-30T13:53:10.416Z,2064.38
2022-07-30T13:54:10.723Z,2013.75
2022-07-30T13:55:10.393Z,1985.63
2022-07-30T13:56:12.694Z,1816.88
2022-07-30T13:57:10.374Z,1929.38
2022-07-30T13:58:10.375Z,2047.50
2022-07-30T13:59:10.378Z,2176.88
2022-07-30T14:00:10.349Z,2272.50
2022-07-30T14:01:18.163Z,2345.63
2022-07-30T14:02:10.373Z,2323.13
2022-07-30T14:03:10.325Z,1715.63
2022-07-30T14:04:10.338Z,1378.13
2022-07-30T14:05:10.327Z,1203.75
2022-07-30T14:06:11.522Z,1805.63
2022-07-30T14:07:10.311Z,1108.13
2022-07-30T14:08:10.288Z,1636.88
2022-07-30T14:09:10.311Z,1400.63
2022-07-30T14:10:10.272Z,1946.25
2022-07-30T14:11:10.272Z,1906.88
2022-07-30T14:12:10.272Z,1687.50
2022-07-30T14:13:10.250Z,1580.63
2022-07-30T14:14:10.254Z,1406.25
2022-07-30T14:15:12.069Z,1136.25
2022-07-30T14:16:35.177Z,990.00
2022-07-30T14:17:10.228Z,1175.63
2022-07-30T14:18:10.205Z,1597.50
2022-07-30T14:19:22.618Z,1783.13
2022-07-30T14:20:10.190Z,2171.25
2022-07-30T14:21:10.181Z,2317.50
2022-07-30T14:22:10.171Z,1833.75
2022-07-30T14:23:10.169Z,2238.75
2022-07-30T14:24:10.159Z,2469.38
2022-07-30T14:25:10.160Z,2700.00
2022-07-30T14:26:10.135Z,2868.75
2022-07-30T14:27:10.127Z,2908.13
2022-07-30T14:28:10.117Z,2835.00
2022-07-30T14:29:10.118Z,2756.25
2022-07-30T14:30:10.115Z,2874.38
2022-07-30T14:31:10.103Z,3099.38
2022-07-30T14:32:10.081Z,3099.38
2022-07-30T14:33:10.085Z,3026.25
2022-07-30T14:34:10.069Z,3121.88
2022-07-30T14:35:10.072Z,3262.50
2022-07-30T14:36:10.066Z,3363.75
2022-07-30T14:37:14.442Z,3285.00
2022-07-30T14:38:10.055Z,3217.50
2022-07-30T14:39:10.022Z,3166.88
2022-07-30T14:40:10.049Z,3189.38
2022-07-30T14:41:10.010Z,3352.50
2022-07-30T14:42:10.012Z,3251.25
2022-07-30T14:43:09.994Z,3296.25
2022-07-30T14:44:09.999Z,3481.88
2022-07-30T14:45:10.011Z,3363.75
2022-07-30T14:46:10.004Z,3313.13
2022-07-30T14:47:09.974Z,3200.63
2022-07-30T14:48:09.962Z,3144.38
2022-07-30T14:49:10.036Z,3256.88
2022-07-30T14:50:09.963Z,3268.13
2022-07-30T14:51:17.755Z,3448.13
2022-07-30T14:52:09.950Z,3341.25
2022-07-30T14:53:09.937Z,3296.25
2022-07-30T14:54:09.941Z,3296.25
2022-07-30T14:55:09.956Z,3206.25
2022-07-30T14:56:09.943Z,3110.63
2022-07-30T14:57:09.913Z,3076.88
2022-07-30T14:58:09.963Z,3358.13
2022-07-30T14:59:09.915Z,3391.88
2022-07-30T15:00:09.907Z,3189.38
2022-07-30T15:01:16.585Z,3172.50
2022-07-30T15:02:10.880Z,2981.25
2022-07-30T15:03:09.893Z,2868.75
2022-07-30T15:04:09.883Z,3026.25
2022-07-30T15:05:09.882Z,3172.50
2022-07-30T15:06:09.876Z,3020.63
2022-07-30T15:07:09.872Z,2998.13
2022-07-30T15:08:17.776Z,3048.75
2022-07-30T15:09:09.850Z,3166.88
2022-07-30T15:10:09.842Z,3138.75
2022-07-30T15:11:09.881Z,2958.75
2022-07-30T15:12:26.814Z,2902.50
2022-07-30T15:13:09.829Z,2958.75
2022-07-30T15:14:09.825Z,2863.13
2022-07-30T15:15:09.819Z,2902.50
2022-07-30T15:16:09.825Z,2823.75
2022-07-30T15:17:09.823Z,3155.63
2022-07-30T15:18:09.813Z,2626.88
2022-07-30T15:19:09.805Z,2930.63
2022-07-30T15:20:09.799Z,3093.75
2022-07-30T15:21:09.812Z,3093.75
2022-07-30T15:22:09.792Z,3150.00
2022-07-30T15:23:13.369Z,2941.88
2022-07-30T15:24:09.774Z,1918.13
2022-07-30T15:25:09.783Z,1890.00
2022-07-30T15:26:09.775Z,2289.38
2022-07-30T15:27:09.758Z,2823.75
2022-07-30T15:28:09.769Z,3082.50
2022-07-30T15:29:13.313Z,2964.38
2022-07-30T15:30:09.753Z,2851.88
2022-07-30T15:31:09.754Z,2250.00
2022-07-30T15:32:09.745Z,2463.75
2022-07-30T15:33:09.740Z,2761.88
2022-07-30T15:34:09.734Z,2818.13
2022-07-30T15:35:13.605Z,2514.38
2022-07-30T15:36:09.728Z,2396.25
2022-07-30T15:37:09.711Z,2621.25
2022-07-30T15:38:09.714Z,2823.75
2022-07-30T15:39:09.711Z,2773.13
2022-07-30T15:40:09.707Z,2598.75
2022-07-30T15:41:13.497Z,2536.88
2022-07-30T15:42:09.696Z,2683.13
2022-07-30T15:43:10.255Z,2621.25
2022-07-30T15:44:09.689Z,2761.88
2022-07-30T15:45:18.261Z,2795.63
2022-07-30T15:46:09.686Z,2255.63
2022-07-30T15:47:13.033Z,2070.00
2022-07-30T15:48:09.664Z,1974.38
2022-07-30T15:49:09.727Z,2238.75
2022-07-30T15:50:09.663Z,2452.50
2022-07-30T15:51:09.661Z,2323.13
2022-07-30T15:52:09.655Z,2041.88
2022-07-30T15:53:11.759Z,2103.75
2022-07-30T15:54:09.644Z,2255.63
2022-07-30T15:55:09.646Z,2424.38
2022-07-30T15:56:09.639Z,2452.50
2022-07-30T15:57:09.638Z,2441.25
2022-07-30T15:58:09.641Z,2345.63
2022-07-30T15:59:09.625Z,2486.25
2022-07-30T16:00:09.620Z,2593.13
2022-07-30T16:01:09.676Z,2598.75
2022-07-30T16:02:09.613Z,2548.13
2022-07-30T16:03:09.607Z,2446.88
2022-07-30T16:04:19.037Z,2576.25
2022-07-30T16:05:13.622Z,2728.13
2022-07-30T16:06:09.609Z,2604.38
2022-07-30T16:07:09.591Z,2626.88
2022-07-30T16:08:09.581Z,2655.00
2022-07-30T16:09:09.584Z,2593.13
2022-07-30T16:10:09.574Z,2767.50
2022-07-30T16:11:10.859Z,2823.75
2022-07-30T16:12:09.564Z,2598.75
2022-07-30T16:13:09.569Z,2340.00
2022-07-30T16:14:09.570Z,2323.13
2022-07-30T16:15:09.563Z,2092.50
2022-07-30T16:16:09.588Z,1355.63
2022-07-30T16:17:13.543Z,1524.38
2022-07-30T16:18:09.559Z,2255.63
2022-07-30T16:19:09.541Z,2345.63
2022-07-30T16:20:09.562Z,2328.75
2022-07-30T16:21:09.538Z,2407.50
2022-07-30T16:22:09.576Z,2458.13
2022-07-30T16:23:13.299Z,2396.25
2022-07-30T16:24:09.528Z,2638.13
2022-07-30T16:25:09.522Z,2688.75
2022-07-30T16:26:09.524Z,2553.75
2022-07-30T16:27:09.539Z,2452.50
2022-07-30T16:28:09.521Z,2368.13
2022-07-30T16:29:13.544Z,2362.50
2022-07-30T16:30:09.507Z,2199.38
2022-07-30T16:31:09.514Z,2216.25
2022-07-30T16:32:09.511Z,2250.00
2022-07-30T16:33:09.509Z,2227.50
2022-07-30T16:34:09.509Z,2188.13
2022-07-30T16:35:13.148Z,2244.38
2022-07-30T16:36:09.493Z,2227.50
2022-07-30T16:37:09.497Z,2171.25
2022-07-30T16:38:09.485Z,2227.50
2022-07-30T16:39:09.479Z,2300.63
2022-07-30T16:40:09.488Z,2278.13
2022-07-30T16:41:13.235Z,2233.13
2022-07-30T16:42:09.488Z,2306.25
2022-07-30T16:43:09.498Z,1957.50
2022-07-30T16:44:09.472Z,1153.13
2022-07-30T16:45:09.466Z,1130.63
2022-07-30T16:46:09.466Z,1783.13
2022-07-30T16:47:13.457Z,1451.25
2022-07-30T16:48:09.459Z,1698.75
2022-07-30T16:49:09.507Z,1513.13
2022-07-30T16:50:09.459Z,1417.50
2022-07-30T16:51:09.453Z,1591.88
2022-07-30T16:52:09.464Z,1406.25
2022-07-30T16:53:13.514Z,1237.50
2022-07-30T16:54:09.447Z,1175.63
2022-07-30T16:58:49.616Z,883.13
2022-07-30T16:59:49.591Z,815.63
2022-07-30T17:33:24.808Z,551.25
2022-07-30T17:34:24.797Z,624.38
2022-07-30T17:35:24.788Z,545.63
2022-07-30T17:36:24.770Z,534.38
2022-07-30T17:37:24.756Z,596.25
2022-07-30T17:38:24.738Z,697.50
